createdAt,value
2022-10-31T00:04:50.698Z,100942.78
2022-10-31T00:09:53.397Z,100943.88
2022-10-31T00:14:55.599Z,100937.00
2022-10-31T00:19:58.244Z,100941.44
2022-10-31T00:25:00.441Z,100939.78
2022-10-31T00:30:02.687Z,100930.00
2022-10-31T00:35:05.293Z,100935.00
2022-10-31T00:40:08.316Z,100927.03
2022-10-31T00:45:12.151Z,100945.56
2022-10-31T00:50:14.422Z,100948.59
2022-10-31T00:55:16.861Z,100931.25
2022-10-31T01:00:19.310Z,100916.28
2022-10-31T01:05:21.957Z,100929.47
2022-10-31T01:10:24.401Z,100926.97
2022-10-31T01:15:26.746Z,100942.56
2022-10-31T01:20:29.098Z,100927.19
2022-10-31T01:25:31.294Z,100917.13
2022-10-31T01:30:33.559Z,100918.38
2022-10-31T01:35:35.781Z,100910.81
2022-10-31T01:40:37.953Z,100905.66
2022-10-31T01:45:40.258Z,100893.03
2022-10-31T01:50:45.083Z,100910.69
2022-10-31T01:55:48.349Z,100917.72
2022-10-31T02:00:53.525Z,100921.31
2022-10-31T02:05:57.692Z,100871.38
2022-10-31T02:11:02.800Z,100906.91
2022-10-31T02:16:05.387Z,100910.56
2022-10-31T02:21:33.610Z,100915.47
2022-10-31T02:26:59.448Z,100913.59
2022-10-31T02:32:28.864Z,100905.25
2022-10-31T02:37:43.940Z,100918.03
2022-10-31T02:48:23.308Z,100889.66
2022-10-31T02:53:25.601Z,100899.31
2022-10-31T02:58:32.205Z,100906.63
2022-10-31T03:03:43.475Z,100920.34
2022-10-31T03:08:57.164Z,100911.66
2022-10-31T03:14:03.224Z,100922.97
2022-10-31T03:19:07.777Z,100927.09
2022-10-31T03:24:12.153Z,100930.91
2022-10-31T03:29:18.788Z,100939.50
2022-10-31T03:34:22.204Z,100905.88
2022-10-31T03:39:25.773Z,100935.78
2022-10-31T03:44:30.961Z,100932.94
2022-10-31T03:49:34.613Z,100923.25
2022-10-31T03:54:48.615Z,100937.16
2022-10-31T04:00:17.453Z,100938.03
2022-10-31T04:05:21.450Z,100942.88
2022-10-31T04:10:31.819Z,100947.72
2022-10-31T04:15:37.443Z,100936.19
2022-10-31T04:20:42.564Z,100953.28
2022-10-31T04:25:44.772Z,100955.00
2022-10-31T04:30:46.992Z,100912.22
2022-10-31T04:35:49.282Z,100947.34
2022-10-31T04:40:51.555Z,100955.56
2022-10-31T04:45:53.798Z,100962.59
2022-10-31T04:51:04.119Z,100958.09
2022-10-31T04:56:06.906Z,100917.47
2022-10-31T05:01:09.225Z,100967.16
2022-10-31T05:06:11.824Z,100965.97
2022-10-31T05:11:14.455Z,100966.44
2022-10-31T05:16:16.688Z,100976.31
2022-10-31T05:21:18.894Z,100981.88
2022-10-31T05:26:21.105Z,100974.84
2022-10-31T05:31:23.389Z,100962.13
2022-10-31T05:36:25.565Z,100986.03
2022-10-31T05:41:28.144Z,100977.63
2022-10-31T05:46:31.631Z,100991.13
2022-10-31T05:51:34.817Z,101004.94
2022-10-31T05:56:37.212Z,100973.91
2022-10-31T06:01:39.649Z,100988.03
2022-10-31T06:06:42.155Z,101005.44
2022-10-31T06:11:44.524Z,101004.53
2022-10-31T06:16:46.966Z,101010.31
2022-10-31T06:21:49.278Z,101002.41
2022-10-31T06:26:51.683Z,101018.59
2022-10-31T06:31:54.056Z,101000.56
2022-10-31T06:36:56.237Z,101010.41
2022-10-31T06:41:58.579Z,101017.09
2022-10-31T06:47:01.183Z,101030.53
2022-10-31T06:52:03.605Z,101021.34
2022-10-31T06:57:05.897Z,101034.06
2022-10-31T07:02:11.154Z,101030.72
2022-10-31T07:07:13.456Z,101031.31
2022-10-31T07:12:18.074Z,101053.41
2022-10-31T07:17:20.304Z,101030.97
2022-10-31T07:22:22.656Z,101033.50
2022-10-31T07:27:24.992Z,101020.03
2022-10-31T07:32:27.382Z,101021.50
2022-10-31T07:37:29.743Z,101012.66
2022-10-31T07:42:43.157Z,101037.84
2022-10-31T07:47:53.331Z,101029.44
2022-10-31T07:53:10.079Z,101036.56
2022-10-31T07:58:14.684Z,101058.34
2022-10-31T08:03:19.097Z,101045.03
2022-10-31T08:08:21.362Z,101039.41
2022-10-31T08:13:23.783Z,101043.41
2022-10-31T08:18:26.157Z,101040.81
2022-10-31T08:23:28.393Z,101042.66
2022-10-31T08:28:30.708Z,101036.03
2022-10-31T08:33:33.346Z,101047.31
2022-10-31T08:38:35.550Z,101040.91
2022-10-31T08:43:37.776Z,101034.41
2022-10-31T08:48:40.557Z,101041.88
2022-10-31T08:53:43.019Z,101048.50
2022-10-31T08:58:45.345Z,101050.97
2022-10-31T09:03:47.550Z,101047.19
2022-10-31T09:08:49.958Z,101034.03
2022-10-31T09:13:54.703Z,101051.44
2022-10-31T09:18:56.925Z,101048.34
2022-10-31T09:24:00.543Z,101045.81
2022-10-31T09:29:03.400Z,101052.03
2022-10-31T09:34:05.896Z,101046.63
2022-10-31T09:39:09.166Z,101034.97
2022-10-31T09:44:30.700Z,101042.03
2022-10-31T09:50:10.106Z,101040.94
2022-10-31T09:55:20.042Z,101047.41
2022-10-31T10:00:23.891Z,101038.22
2022-10-31T10:05:30.024Z,101029.13
2022-10-31T10:11:24.513Z,101029.69
2022-10-31T10:17:07.068Z,101027.38
2022-10-31T10:22:30.832Z,101026.59
2022-10-31T10:27:38.793Z,101018.47
2022-10-31T10:32:52.102Z,101004.75
2022-10-31T10:38:01.461Z,101001.25
2022-10-31T10:43:25.183Z,101007.72
2022-10-31T10:48:42.590Z,101001.75
2022-10-31T10:54:06.549Z,101013.13
2022-10-31T10:59:19.908Z,101008.75
2022-10-31T11:04:33.082Z,101019.06
2022-10-31T11:09:37.717Z,100998.84
2022-10-31T11:15:18.823Z,101000.50
2022-10-31T11:20:21.156Z,101005.03
2022-10-31T11:25:27.945Z,100991.13
2022-10-31T11:30:31.499Z,100992.16
2022-10-31T11:35:34.167Z,100976.75
2022-10-31T11:40:36.615Z,100974.06
2022-10-31T11:45:39.043Z,100973.13
2022-10-31T11:50:43.712Z,100971.69
2022-10-31T11:55:47.561Z,100968.13
2022-10-31T12:00:55.951Z,100959.97
2022-10-31T12:06:12.861Z,100961.69
2022-10-31T12:11:43.112Z,100949.78
2022-10-31T12:16:53.069Z,100942.38
2022-10-31T12:22:01.016Z,100947.84
2022-10-31T12:27:18.350Z,100951.63
2022-10-31T12:32:30.981Z,100934.81
2022-10-31T12:37:45.524Z,100951.88
2022-10-31T12:43:00.836Z,100948.25
2022-10-31T12:48:39.360Z,100937.81
2022-10-31T12:54:07.038Z,100948.63
2022-10-31T12:59:40.684Z,100940.28
2022-10-31T13:05:06.601Z,100948.53
2022-10-31T13:10:36.053Z,100935.84
2022-10-31T13:15:59.205Z,100946.22
2022-10-31T13:21:09.379Z,100921.16
2022-10-31T13:26:17.677Z,100932.53
2022-10-31T13:31:20.249Z,100939.91
2022-10-31T13:36:43.579Z,100950.22
2022-10-31T13:41:55.959Z,100939.44
2022-10-31T13:46:59.721Z,100937.66
2022-10-31T13:52:11.154Z,100937.22
2022-10-31T13:57:33.096Z,100934.94
2022-10-31T14:02:38.031Z,100941.63
2022-10-31T14:07:45.437Z,100922.81
2022-10-31T14:12:50.216Z,100938.31
2022-10-31T14:18:01.055Z,100956.53
2022-10-31T14:23:13.773Z,100939.28
2022-10-31T14:28:36.538Z,100931.38
2022-10-31T14:33:44.068Z,100950.63
2022-10-31T14:38:58.952Z,100967.91
2022-10-31T14:44:30.982Z,100947.69
2022-10-31T14:50:07.391Z,100970.94
2022-10-31T14:55:14.405Z,100956.59
2022-10-31T15:00:22.504Z,100976.22
2022-10-31T15:05:27.535Z,100941.13
2022-10-31T15:10:38.147Z,100976.41
2022-10-31T15:15:42.093Z,100964.88
2022-10-31T15:20:46.455Z,100970.75
2022-10-31T15:25:48.706Z,100974.28
2022-10-31T15:31:01.360Z,100996.94
2022-10-31T15:36:04.491Z,100998.09
2022-10-31T15:41:32.507Z,100972.50
2022-10-31T15:46:35.293Z,100986.16
2022-10-31T15:51:39.398Z,100972.06
2022-10-31T15:56:45.609Z,100995.41
2022-10-31T16:02:02.911Z,100996.09
2022-10-31T16:07:22.990Z,101012.44
2022-10-31T16:12:30.857Z,101024.34
2022-10-31T16:17:33.768Z,101026.84
2022-10-31T16:22:41.147Z,101028.13
2022-10-31T16:27:54.224Z,101028.09
2022-10-31T16:33:02.932Z,101020.44
2022-10-31T16:38:07.016Z,101037.44
2022-10-31T16:43:15.421Z,101050.84
2022-10-31T16:48:22.246Z,101030.66
2022-10-31T16:53:24.649Z,101039.75
2022-10-31T16:58:31.174Z,101062.56
2022-10-31T17:03:33.618Z,101055.88
2022-10-31T17:08:35.869Z,101071.03
2022-10-31T17:13:38.082Z,101040.59
2022-10-31T17:18:40.266Z,101064.53
2022-10-31T17:23:44.848Z,101071.00
2022-10-31T17:28:47.399Z,101081.28
2022-10-31T17:33:50.509Z,101088.19
2022-10-31T17:38:53.321Z,101096.38
2022-10-31T17:43:57.029Z,101097.72
2022-10-31T17:49:01.257Z,101093.84
2022-10-31T17:54:03.630Z,101080.72
2022-10-31T18:04:12.995Z,101109.69
2022-10-31T18:09:15.194Z,101110.97
2022-10-31T18:14:17.494Z,101107.66
2022-10-31T18:19:19.730Z,101106.59
2022-10-31T18:24:22.090Z,101107.69
2022-10-31T18:29:24.550Z,101108.91
2022-10-31T18:34:26.933Z,101115.41
2022-10-31T18:39:29.141Z,101118.53
2022-10-31T18:44:32.527Z,101129.16
2022-10-31T18:49:37.124Z,101123.75
2022-10-31T18:54:39.650Z,101107.53
2022-10-31T18:59:42.221Z,101109.78
2022-10-31T19:04:44.465Z,101118.97
2022-10-31T19:09:46.828Z,101111.03
2022-10-31T19:14:49.765Z,101135.81
2022-10-31T19:19:52.169Z,101110.66
2022-10-31T19:24:54.353Z,101107.69
2022-10-31T19:29:56.573Z,101120.63
2022-10-31T19:34:58.968Z,101129.34
2022-10-31T19:40:01.252Z,101129.66
2022-10-31T19:45:04.276Z,101151.47
2022-10-31T19:50:07.019Z,101159.13
2022-10-31T19:55:09.424Z,101152.03
2022-10-31T20:00:13.183Z,101168.22
2022-10-31T20:05:15.551Z,101166.50
2022-10-31T20:10:18.108Z,101176.50
2022-10-31T20:15:20.445Z,101164.38
2022-10-31T20:20:22.937Z,101175.84
2022-10-31T20:25:25.287Z,101187.53
2022-10-31T20:30:28.327Z,101168.38
2022-10-31T20:35:30.924Z,101180.72
2022-10-31T20:40:33.917Z,101174.03
2022-10-31T20:45:36.440Z,101191.31
2022-10-31T20:50:40.656Z,101201.75
2022-10-31T20:55:43.982Z,101204.66
2022-10-31T21:00:46.350Z,101191.47
2022-10-31T21:06:00.020Z,101187.50
2022-10-31T21:11:09.736Z,101194.56
2022-10-31T21:16:19.322Z,101196.97
2022-10-31T21:21:36.959Z,101204.44
2022-10-31T21:26:42.738Z,101208.88
2022-10-31T21:31:46.311Z,101182.06
2022-10-31T21:36:49.099Z,101193.50
2022-10-31T21:41:51.707Z,101215.66
2022-10-31T21:46:57.143Z,101210.88
2022-10-31T21:51:59.850Z,101212.59
2022-10-31T21:57:03.961Z,101221.72
2022-10-31T22:02:06.828Z,101221.91
2022-10-31T22:07:09.664Z,101227.00
2022-10-31T22:12:12.255Z,101219.31
2022-10-31T22:17:14.755Z,101217.41
2022-10-31T22:22:16.988Z,101219.63
2022-10-31T22:27:19.350Z,101239.91
2022-10-31T22:32:23.913Z,101226.53
2022-10-31T22:37:26.262Z,101250.88
2022-10-31T22:42:28.481Z,101245.03
2022-10-31T22:47:31.198Z,101246.63
2022-10-31T22:52:33.847Z,101234.53
2022-10-31T22:57:36.175Z,101239.31
2022-10-31T23:02:38.402Z,101223.22
2022-10-31T23:07:41.007Z,101240.97
2022-10-31T23:13:01.744Z,101223.41
2022-10-31T23:18:04.393Z,101235.69
2022-10-31T23:23:08.126Z,101227.31
2022-10-31T23:28:10.310Z,101212.25
2022-10-31T23:33:12.743Z,101230.38
2022-10-31T23:38:15.038Z,101222.75
2022-10-31T23:43:17.410Z,101228.97
2022-10-31T23:48:19.840Z,101208.59
2022-10-31T23:53:22.075Z,101241.63
2022-10-31T23:58:24.487Z,101244.00
